sensor_id;sensor_type;location;lat;lon;timestamp;temperature;humidity
4647;DHT22;2336;47.822;7.564;2024-01-30T00:02:03;4.90;99.90
4647;DHT22;2336;47.822;7.564;2024-01-30T00:04:29;4.90;99.90
4647;DHT22;2336;47.822;7.564;2024-01-30T00:06:56;4.90;99.90
4647;DHT22;2336;47.822;7.564;2024-01-30T00:09:23;4.90;99.90
4647;DHT22;2336;47.822;7.564;2024-01-30T00:11:50;4.90;99.90
4647;DHT22;2336;47.822;7.564;2024-01-30T00:14:17;4.90;99.90
4647;DHT22;2336;47.822;7.564;2024-01-30T00:16:45;4.90;99.90
4647;DHT22;2336;47.822;7.564;2024-01-30T00:19:12;4.90;99.90
4647;DHT22;2336;47.822;7.564;2024-01-30T00:21:39;4.80;99.90
4647;DHT22;2336;47.822;7.564;2024-01-30T00:24:05;4.80;99.90
4647;DHT22;2336;47.822;7.564;2024-01-30T00:26:32;4.70;99.90
4647;DHT22;2336;47.822;7.564;2024-01-30T00:28:59;4.80;99.90
4647;DHT22;2336;47.822;7.564;2024-01-30T00:31:26;4.80;99.90
4647;DHT22;2336;47.822;7.564;2024-01-30T00:33:54;4.80;99.90
4647;DHT22;2336;47.822;7.564;2024-01-30T00:36:21;4.80;99.90
4647;DHT22;2336;47.822;7.564;2024-01-30T00:38:47;4.80;99.90
4647;DHT22;2336;47.822;7.564;2024-01-30T00:41:14;4.80;99.90
4647;DHT22;2336;47.822;7.564;2024-01-30T00:43:43;4.80;99.90
4647;DHT22;2336;47.822;7.564;2024-01-30T00:46:10;4.70;99.90
4647;DHT22;2336;47.822;7.564;2024-01-30T00:48:37;4.70;99.90
4647;DHT22;2336;47.822;7.564;2024-01-30T00:51:05;4.70;99.90
4647;DHT22;2336;47.822;7.564;2024-01-30T00:53:32;4.70;99.90
4647;DHT22;2336;47.822;7.564;2024-01-30T00:55:58;4.80;99.90
4647;DHT22;2336;47.822;7.564;2024-01-30T00:58:25;4.80;99.90
4647;DHT22;2336;47.822;7.564;2024-01-30T01:00:52;4.70;99.90
4647;DHT22;2336;47.822;7.564;2024-01-30T01:03:19;4.70;99.90
4647;DHT22;2336;47.822;7.564;2024-01-30T01:05:46;4.70;99.90
4647;DHT22;2336;47.822;7.564;2024-01-30T01:08:14;4.70;99.90
4647;DHT22;2336;47.822;7.564;2024-01-30T01:10:41;4.70;99.90
4647;DHT22;2336;47.822;7.564;2024-01-30T01:13:08;4.70;99.90
4647;DHT22;2336;47.822;7.564;2024-01-30T01:15:35;4.70;99.90
4647;DHT22;2336;47.822;7.564;2024-01-30T01:18:03;4.70;99.90
4647;DHT22;2336;47.822;7.564;2024-01-30T01:20:30;4.70;99.90
4647;DHT22;2336;47.822;7.564;2024-01-30T01:22:57;4.60;99.90
4647;DHT22;2336;47.822;7.564;2024-01-30T01:25:25;4.60;99.90
4647;DHT22;2336;47.822;7.564;2024-01-30T01:27:51;4.60;99.90
4647;DHT22;2336;47.822;7.564;2024-01-30T01:30:18;4.60;99.90
4647;DHT22;2336;47.822;7.564;2024-01-30T01:32:47;4.60;99.90
4647;DHT22;2336;47.822;7.564;2024-01-30T01:35:20;4.60;99.90
4647;DHT22;2336;47.822;7.564;2024-01-30T01:37:48;4.60;99.90
4647;DHT22;2336;47.822;7.564;2024-01-30T01:40:20;4.60;99.90
4647;DHT22;2336;47.822;7.564;2024-01-30T01:42:49;4.50;99.90
4647;DHT22;2336;47.822;7.564;2024-01-30T01:45:16;4.50;99.90
4647;DHT22;2336;47.822;7.564;2024-01-30T01:47:44;4.50;99.90
4647;DHT22;2336;47.822;7.564;2024-01-30T01:50:12;4.50;99.90
4647;DHT22;2336;47.822;7.564;2024-01-30T01:52:40;4.50;99.90
4647;DHT22;2336;47.822;7.564;2024-01-30T01:55:07;4.50;99.90
4647;DHT22;2336;47.822;7.564;2024-01-30T01:57:34;4.50;99.90
4647;DHT22;2336;47.822;7.564;2024-01-30T02:00:03;4.50;99.90
4647;DHT22;2336;47.822;7.564;2024-01-30T02:02:35;4.40;99.90
4647;DHT22;2336;47.822;7.564;2024-01-30T02:05:02;4.40;99.90
4647;DHT22;2336;47.822;7.564;2024-01-30T02:07:29;4.30;99.90
4647;DHT22;2336;47.822;7.564;2024-01-30T02:09:56;4.30;99.90
4647;DHT22;2336;47.822;7.564;2024-01-30T02:12:23;4.30;99.90
4647;DHT22;2336;47.822;7.564;2024-01-30T02:14:50;4.30;99.90
4647;DHT22;2336;47.822;7.564;2024-01-30T02:17:18;4.30;99.90
4647;DHT22;2336;47.822;7.564;2024-01-30T02:19:45;4.20;99.90
4647;DHT22;2336;47.822;7.564;2024-01-30T02:22:13;4.20;99.90
4647;DHT22;2336;47.822;7.564;2024-01-30T02:24:41;4.20;99.90
4647;DHT22;2336;47.822;7.564;2024-01-30T02:27:07;4.20;99.90
4647;DHT22;2336;47.822;7.564;2024-01-30T02:29:34;4.10;99.90
4647;DHT22;2336;47.822;7.564;2024-01-30T02:32:01;4.10;99.90
4647;DHT22;2336;47.822;7.564;2024-01-30T02:34:28;4.10;99.90
4647;DHT22;2336;47.822;7.564;2024-01-30T02:36:54;4.00;99.90
4647;DHT22;2336;47.822;7.564;2024-01-30T02:39:23;4.00;99.90
4647;DHT22;2336;47.822;7.564;2024-01-30T02:41:50;4.00;99.90
4647;DHT22;2336;47.822;7.564;2024-01-30T02:44:17;4.00;99.90
4647;DHT22;2336;47.822;7.564;2024-01-30T02:46:43;4.00;99.90
4647;DHT22;2336;47.822;7.564;2024-01-30T02:49:10;4.00;99.90
4647;DHT22;2336;47.822;7.564;2024-01-30T02:51:37;4.00;99.90
4647;DHT22;2336;47.822;7.564;2024-01-30T02:54:04;4.00;99.90
4647;DHT22;2336;47.822;7.564;2024-01-30T02:56:32;4.00;99.90
4647;DHT22;2336;47.822;7.564;2024-01-30T02:59:04;4.00;99.90
4647;DHT22;2336;47.822;7.564;2024-01-30T03:01:31;4.00;99.90
4647;DHT22;2336;47.822;7.564;2024-01-30T03:03:58;4.00;99.90
4647;DHT22;2336;47.822;7.564;2024-01-30T03:06:25;4.00;99.90
4647;DHT22;2336;47.822;7.564;2024-01-30T03:08:51;4.00;99.90
4647;DHT22;2336;47.822;7.564;2024-01-30T03:11:18;4.00;99.90
4647;DHT22;2336;47.822;7.564;2024-01-30T03:13:46;4.00;99.90
4647;DHT22;2336;47.822;7.564;2024-01-30T03:16:13;4.00;99.90
4647;DHT22;2336;47.822;7.564;2024-01-30T03:18:40;4.00;99.90
4647;DHT22;2336;47.822;7.564;2024-01-30T03:21:07;4.00;99.90
4647;DHT22;2336;47.822;7.564;2024-01-30T03:23:33;4.00;99.90
4647;DHT22;2336;47.822;7.564;2024-01-30T03:26:00;3.90;99.90
4647;DHT22;2336;47.822;7.564;2024-01-30T03:28:29;3.90;99.90
4647;DHT22;2336;47.822;7.564;2024-01-30T03:30:57;3.90;99.90
4647;DHT22;2336;47.822;7.564;2024-01-30T03:33:24;3.90;99.90
4647;DHT22;2336;47.822;7.564;2024-01-30T03:35:50;3.90;99.90
4647;DHT22;2336;47.822;7.564;2024-01-30T03:38:17;3.90;99.90
4647;DHT22;2336;47.822;7.564;2024-01-30T03:40:44;3.90;99.90
4647;DHT22;2336;47.822;7.564;2024-01-30T03:43:11;3.90;99.90
4647;DHT22;2336;47.822;7.564;2024-01-30T03:45:38;3.90;99.90
4647;DHT22;2336;47.822;7.564;2024-01-30T03:48:07;3.90;99.90
4647;DHT22;2336;47.822;7.564;2024-01-30T03:50:33;3.90;99.90
4647;DHT22;2336;47.822;7.564;2024-01-30T03:53:00;3.80;99.90
4647;DHT22;2336;47.822;7.564;2024-01-30T03:55:27;3.80;99.90
4647;DHT22;2336;47.822;7.564;2024-01-30T03:57:54;3.90;99.90
4647;DHT22;2336;47.822;7.564;2024-01-30T04:00:24;4.10;99.90
4647;DHT22;2336;47.822;7.564;2024-01-30T04:02:50;4.10;99.90
4647;DHT22;2336;47.822;7.564;2024-01-30T04:05:19;4.20;99.90
4647;DHT22;2336;47.822;7.564;2024-01-30T04:07:45;4.20;99.90
4647;DHT22;2336;47.822;7.564;2024-01-30T04:10:12;4.20;99.90
4647;DHT22;2336;47.822;7.564;2024-01-30T04:12:39;4.20;99.90
4647;DHT22;2336;47.822;7.564;2024-01-30T04:15:06;4.30;99.90
4647;DHT22;2336;47.822;7.564;2024-01-30T04:17:33;4.20;99.90
4647;DHT22;2336;47.822;7.564;2024-01-30T04:20:00;4.40;99.90
4647;DHT22;2336;47.822;7.564;2024-01-30T04:22:28;4.40;99.90
4647;DHT22;2336;47.822;7.564;2024-01-30T04:24:55;4.50;99.90
4647;DHT22;2336;47.822;7.564;2024-01-30T04:27:21;4.60;99.90
4647;DHT22;2336;47.822;7.564;2024-01-30T04:29:48;4.70;99.90
4647;DHT22;2336;47.822;7.564;2024-01-30T04:32:15;4.70;99.90
4647;DHT22;2336;47.822;7.564;2024-01-30T04:34:41;4.60;99.90
4647;DHT22;2336;47.822;7.564;2024-01-30T04:37:08;4.70;99.90
4647;DHT22;2336;47.822;7.564;2024-01-30T04:39:36;4.60;99.90
4647;DHT22;2336;47.822;7.564;2024-01-30T04:42:04;4.70;99.90
4647;DHT22;2336;47.822;7.564;2024-01-30T04:44:30;4.60;99.90
4647;DHT22;2336;47.822;7.564;2024-01-30T04:46:57;4.50;99.90
4647;DHT22;2336;47.822;7.564;2024-01-30T04:49:26;4.60;99.90
4647;DHT22;2336;47.822;7.564;2024-01-30T04:51:54;4.60;99.90
4647;DHT22;2336;47.822;7.564;2024-01-30T04:54:21;4.70;99.90
4647;DHT22;2336;47.822;7.564;2024-01-30T04:56:49;4.80;99.90
4647;DHT22;2336;47.822;7.564;2024-01-30T04:59:16;4.90;99.90
4647;DHT22;2336;47.822;7.564;2024-01-30T05:01:43;5.00;99.90
4647;DHT22;2336;47.822;7.564;2024-01-30T05:04:10;5.00;99.90
4647;DHT22;2336;47.822;7.564;2024-01-30T05:06:37;5.00;99.90
4647;DHT22;2336;47.822;7.564;2024-01-30T05:09:03;5.00;99.90
4647;DHT22;2336;47.822;7.564;2024-01-30T05:11:30;4.90;99.90
4647;DHT22;2336;47.822;7.564;2024-01-30T05:13:58;4.90;99.90
4647;DHT22;2336;47.822;7.564;2024-01-30T05:16:25;5.00;99.90
4647;DHT22;2336;47.822;7.564;2024-01-30T05:18:52;5.00;99.90
4647;DHT22;2336;47.822;7.564;2024-01-30T05:21:19;5.00;99.90
4647;DHT22;2336;47.822;7.564;2024-01-30T05:23:45;5.00;99.90
4647;DHT22;2336;47.822;7.564;2024-01-30T05:26:12;5.00;99.90
4647;DHT22;2336;47.822;7.564;2024-01-30T05:28:39;5.00;99.90
4647;DHT22;2336;47.822;7.564;2024-01-30T05:31:07;5.00;99.90
4647;DHT22;2336;47.822;7.564;2024-01-30T05:33:34;5.10;99.90
4647;DHT22;2336;47.822;7.564;2024-01-30T05:36:01;5.10;99.90
4647;DHT22;2336;47.822;7.564;2024-01-30T05:38:28;5.10;99.90
4647;DHT22;2336;47.822;7.564;2024-01-30T05:40:55;5.20;99.90
4647;DHT22;2336;47.822;7.564;2024-01-30T05:43:23;5.30;99.90
4647;DHT22;2336;47.822;7.564;2024-01-30T05:45:51;5.40;99.90
4647;DHT22;2336;47.822;7.564;2024-01-30T05:48:19;5.30;99.90
4647;DHT22;2336;47.822;7.564;2024-01-30T05:50:45;5.30;99.90
4647;DHT22;2336;47.822;7.564;2024-01-30T05:53:12;5.30;99.90
4647;DHT22;2336;47.822;7.564;2024-01-30T05:55:38;5.20;99.90
4647;DHT22;2336;47.822;7.564;2024-01-30T05:58:05;5.10;99.90
4647;DHT22;2336;47.822;7.564;2024-01-30T06:00:32;5.10;99.90
4647;DHT22;2336;47.822;7.564;2024-01-30T06:02:59;5.00;99.90
4647;DHT22;2336;47.822;7.564;2024-01-30T06:05:27;4.90;99.90
4647;DHT22;2336;47.822;7.564;2024-01-30T06:07:53;4.80;99.90
4647;DHT22;2336;47.822;7.564;2024-01-30T06:10:20;4.70;99.90
4647;DHT22;2336;47.822;7.564;2024-01-30T06:12:47;4.60;99.90
4647;DHT22;2336;47.822;7.564;2024-01-30T06:15:14;4.60;99.90
4647;DHT22;2336;47.822;7.564;2024-01-30T06:17:41;4.50;99.90
4647;DHT22;2336;47.822;7.564;2024-01-30T06:20:08;4.40;99.90
4647;DHT22;2336;47.822;7.564;2024-01-30T06:22:37;4.30;99.90
4647;DHT22;2336;47.822;7.564;2024-01-30T06:25:04;4.20;99.90
4647;DHT22;2336;47.822;7.564;2024-01-30T06:27:31;4.20;99.90
4647;DHT22;2336;47.822;7.564;2024-01-30T06:29:58;4.10;99.90
4647;DHT22;2336;47.822;7.564;2024-01-30T06:32:24;4.10;99.90
4647;DHT22;2336;47.822;7.564;2024-01-30T06:34:51;4.00;99.90
4647;DHT22;2336;47.822;7.564;2024-01-30T06:37:18;4.00;99.90
4647;DHT22;2336;47.822;7.564;2024-01-30T06:39:46;4.00;99.90
4647;DHT22;2336;47.822;7.564;2024-01-30T06:42:13;4.00;99.90
4647;DHT22;2336;47.822;7.564;2024-01-30T06:44:39;3.90;99.90
4647;DHT22;2336;47.822;7.564;2024-01-30T06:47:06;3.90;99.90
4647;DHT22;2336;47.822;7.564;2024-01-30T06:49:33;3.90;99.90
4647;DHT22;2336;47.822;7.564;2024-01-30T06:52:00;3.90;99.90
4647;DHT22;2336;47.822;7.564;2024-01-30T06:54:27;3.90;99.90
4647;DHT22;2336;47.822;7.564;2024-01-30T06:56:55;3.90;99.90
4647;DHT22;2336;47.822;7.564;2024-01-30T06:59:21;3.90;99.90
4647;DHT22;2336;47.822;7.564;2024-01-30T07:01:48;3.80;99.90
4647;DHT22;2336;47.822;7.564;2024-01-30T07:04:15;3.80;99.90
4647;DHT22;2336;47.822;7.564;2024-01-30T07:06:42;3.80;99.90
4647;DHT22;2336;47.822;7.564;2024-01-30T07:09:09;3.80;99.90
4647;DHT22;2336;47.822;7.564;2024-01-30T07:11:36;3.80;99.90
4647;DHT22;2336;47.822;7.564;2024-01-30T07:14:04;3.80;99.90
4647;DHT22;2336;47.822;7.564;2024-01-30T07:16:31;3.80;99.90
4647;DHT22;2336;47.822;7.564;2024-01-30T07:18:57;3.70;99.90
4647;DHT22;2336;47.822;7.564;2024-01-30T07:21:24;3.70;99.90
4647;DHT22;2336;47.822;7.564;2024-01-30T07:23:53;3.70;99.90
4647;DHT22;2336;47.822;7.564;2024-01-30T07:26:20;3.70;99.90
4647;DHT22;2336;47.822;7.564;2024-01-30T07:28:47;3.60;99.90
4647;DHT22;2336;47.822;7.564;2024-01-30T07:31:16;3.70;99.90
4647;DHT22;2336;47.822;7.564;2024-01-30T07:33:46;3.70;99.90
4647;DHT22;2336;47.822;7.564;2024-01-30T07:36:12;3.70;99.90
4647;DHT22;2336;47.822;7.564;2024-01-30T07:38:39;3.70;99.90
4647;DHT22;2336;47.822;7.564;2024-01-30T07:41:06;3.70;99.90
4647;DHT22;2336;47.822;7.564;2024-01-30T07:43:33;3.80;99.90
4647;DHT22;2336;47.822;7.564;2024-01-30T07:46:01;3.80;99.90
4647;DHT22;2336;47.822;7.564;2024-01-30T07:48:29;3.80;99.90
4647;DHT22;2336;47.822;7.564;2024-01-30T07:50:56;3.80;99.90
4647;DHT22;2336;47.822;7.564;2024-01-30T07:53:23;3.90;99.90
4647;DHT22;2336;47.822;7.564;2024-01-30T07:55:50;3.90;99.90
4647;DHT22;2336;47.822;7.564;2024-01-30T07:58:17;4.00;99.90
4647;DHT22;2336;47.822;7.564;2024-01-30T08:00:44;4.00;99.90
4647;DHT22;2336;47.822;7.564;2024-01-30T08:03:11;4.10;99.90
4647;DHT22;2336;47.822;7.564;2024-01-30T08:05:39;4.10;99.90
4647;DHT22;2336;47.822;7.564;2024-01-30T08:08:06;4.20;99.90
4647;DHT22;2336;47.822;7.564;2024-01-30T08:10:33;4.30;99.90
4647;DHT22;2336;47.822;7.564;2024-01-30T08:13:00;4.40;99.90
4647;DHT22;2336;47.822;7.564;2024-01-30T08:15:27;4.40;99.90
4647;DHT22;2336;47.822;7.564;2024-01-30T08:17:54;4.50;99.90
4647;DHT22;2336;47.822;7.564;2024-01-30T08:20:23;4.60;99.90
4647;DHT22;2336;47.822;7.564;2024-01-30T08:22:51;4.60;99.90
4647;DHT22;2336;47.822;7.564;2024-01-30T08:25:18;4.60;99.90
4647;DHT22;2336;47.822;7.564;2024-01-30T08:27:45;4.70;99.90
4647;DHT22;2336;47.822;7.564;2024-01-30T08:30:12;4.80;99.90
4647;DHT22;2336;47.822;7.564;2024-01-30T08:32:39;4.90;99.90
4647;DHT22;2336;47.822;7.564;2024-01-30T08:35:06;4.90;99.90
4647;DHT22;2336;47.822;7.564;2024-01-30T08:37:34;5.00;99.90
4647;DHT22;2336;47.822;7.564;2024-01-30T08:40:02;5.10;99.90
4647;DHT22;2336;47.822;7.564;2024-01-30T08:42:30;5.10;99.90
4647;DHT22;2336;47.822;7.564;2024-01-30T08:44:56;5.10;99.90
4647;DHT22;2336;47.822;7.564;2024-01-30T08:47:23;5.20;99.90
4647;DHT22;2336;47.822;7.564;2024-01-30T08:49:50;5.20;99.90
4647;DHT22;2336;47.822;7.564;2024-01-30T08:52:17;5.20;99.90
4647;DHT22;2336;47.822;7.564;2024-01-30T08:54:44;5.30;99.90
4647;DHT22;2336;47.822;7.564;2024-01-30T08:57:12;5.40;99.90
4647;DHT22;2336;47.822;7.564;2024-01-30T08:59:39;5.40;99.90
4647;DHT22;2336;47.822;7.564;2024-01-30T09:02:06;5.50;99.90
4647;DHT22;2336;47.822;7.564;2024-01-30T09:04:32;5.60;99.90
4647;DHT22;2336;47.822;7.564;2024-01-30T09:06:59;5.70;99.90
4647;DHT22;2336;47.822;7.564;2024-01-30T09:09:26;5.70;99.90
4647;DHT22;2336;47.822;7.564;2024-01-30T09:11:53;5.80;99.90
4647;DHT22;2336;47.822;7.564;2024-01-30T09:14:21;5.90;99.90
4647;DHT22;2336;47.822;7.564;2024-01-30T09:16:48;5.90;99.90
4647;DHT22;2336;47.822;7.564;2024-01-30T09:19:15;6.00;99.90
4647;DHT22;2336;47.822;7.564;2024-01-30T09:21:42;6.10;99.90
4647;DHT22;2336;47.822;7.564;2024-01-30T09:24:08;6.20;99.90
4647;DHT22;2336;47.822;7.564;2024-01-30T09:26:35;6.30;99.90
4647;DHT22;2336;47.822;7.564;2024-01-30T09:29:02;6.30;99.90
4647;DHT22;2336;47.822;7.564;2024-01-30T09:31:30;6.30;99.90
4647;DHT22;2336;47.822;7.564;2024-01-30T09:33:57;6.40;99.90
4647;DHT22;2336;47.822;7.564;2024-01-30T09:36:24;6.50;99.90
4647;DHT22;2336;47.822;7.564;2024-01-30T09:38:51;6.60;99.90
4647;DHT22;2336;47.822;7.564;2024-01-30T09:41:19;6.60;99.90
4647;DHT22;2336;47.822;7.564;2024-01-30T09:43:48;6.70;99.90
4647;DHT22;2336;47.822;7.564;2024-01-30T09:46:17;6.70;99.90
4647;DHT22;2336;47.822;7.564;2024-01-30T09:48:46;6.70;99.90
4647;DHT22;2336;47.822;7.564;2024-01-30T09:51:14;6.80;99.90
4647;DHT22;2336;47.822;7.564;2024-01-30T09:53:42;6.80;99.90
4647;DHT22;2336;47.822;7.564;2024-01-30T09:56:10;6.90;99.90
4647;DHT22;2336;47.822;7.564;2024-01-30T09:58:38;7.10;99.90
4647;DHT22;2336;47.822;7.564;2024-01-30T10:01:06;7.20;99.90
4647;DHT22;2336;47.822;7.564;2024-01-30T10:03:33;7.30;99.90
4647;DHT22;2336;47.822;7.564;2024-01-30T10:06:02;7.40;99.90
4647;DHT22;2336;47.822;7.564;2024-01-30T10:08:30;7.70;99.90
4647;DHT22;2336;47.822;7.564;2024-01-30T10:10:56;8.00;99.90
4647;DHT22;2336;47.822;7.564;2024-01-30T10:13:23;8.30;99.90
4647;DHT22;2336;47.822;7.564;2024-01-30T10:15:50;8.40;99.90
4647;DHT22;2336;47.822;7.564;2024-01-30T10:18:17;8.50;99.90
4647;DHT22;2336;47.822;7.564;2024-01-30T10:20:44;8.80;99.90
4647;DHT22;2336;47.822;7.564;2024-01-30T10:23:13;9.00;99.90
4647;DHT22;2336;47.822;7.564;2024-01-30T10:25:40;9.10;99.90
4647;DHT22;2336;47.822;7.564;2024-01-30T10:28:07;9.10;99.90
4647;DHT22;2336;47.822;7.564;2024-01-30T10:30:34;9.20;99.90
4647;DHT22;2336;47.822;7.564;2024-01-30T10:33:01;9.30;99.90
4647;DHT22;2336;47.822;7.564;2024-01-30T10:35:28;9.40;99.90
4647;DHT22;2336;47.822;7.564;2024-01-30T10:37:57;9.30;99.90
4647;DHT22;2336;47.822;7.564;2024-01-30T10:40:28;9.30;99.90
4647;DHT22;2336;47.822;7.564;2024-01-30T10:42:55;9.60;99.90
4647;DHT22;2336;47.822;7.564;2024-01-30T10:45:23;10.00;99.90
4647;DHT22;2336;47.822;7.564;2024-01-30T10:47:54;10.20;99.90
4647;DHT22;2336;47.822;7.564;2024-01-30T10:50:25;10.40;99.90
4647;DHT22;2336;47.822;7.564;2024-01-30T10:52:52;10.60;99.90
4647;DHT22;2336;47.822;7.564;2024-01-30T10:55:21;10.70;99.90
4647;DHT22;2336;47.822;7.564;2024-01-30T10:57:50;10.80;99.90
4647;DHT22;2336;47.822;7.564;2024-01-30T11:00:19;11.00;99.90
4647;DHT22;2336;47.822;7.564;2024-01-30T11:02:49;11.10;99.90
4647;DHT22;2336;47.822;7.564;2024-01-30T11:05:23;11.00;99.90
4647;DHT22;2336;47.822;7.564;2024-01-30T11:07:50;11.20;99.90
4647;DHT22;2336;47.822;7.564;2024-01-30T11:10:17;11.30;99.90
4647;DHT22;2336;47.822;7.564;2024-01-30T11:12:46;11.40;99.90
4647;DHT22;2336;47.822;7.564;2024-01-30T11:15:15;11.70;99.90
4647;DHT22;2336;47.822;7.564;2024-01-30T11:17:43;11.80;99.90
4647;DHT22;2336;47.822;7.564;2024-01-30T11:20:14;11.90;99.90
4647;DHT22;2336;47.822;7.564;2024-01-30T11:22:42;12.10;99.90
4647;DHT22;2336;47.822;7.564;2024-01-30T11:25:14;12.30;99.90
4647;DHT22;2336;47.822;7.564;2024-01-30T11:27:42;12.10;99.90
4647;DHT22;2336;47.822;7.564;2024-01-30T11:30:09;11.90;99.90
4647;DHT22;2336;47.822;7.564;2024-01-30T11:32:38;12.00;99.90
4647;DHT22;2336;47.822;7.564;2024-01-30T11:35:05;11.80;99.90
4647;DHT22;2336;47.822;7.564;2024-01-30T11:37:32;11.70;99.90
4647;DHT22;2336;47.822;7.564;2024-01-30T11:40:03;11.70;99.90
4647;DHT22;2336;47.822;7.564;2024-01-30T11:42:30;11.70;99.90
4647;DHT22;2336;47.822;7.564;2024-01-30T11:44:59;11.70;99.90
4647;DHT22;2336;47.822;7.564;2024-01-30T11:47:27;11.70;99.90
4647;DHT22;2336;47.822;7.564;2024-01-30T11:49:56;11.90;99.90
4647;DHT22;2336;47.822;7.564;2024-01-30T11:52:23;12.00;99.90
4647;DHT22;2336;47.822;7.564;2024-01-30T11:54:50;12.10;99.90
4647;DHT22;2336;47.822;7.564;2024-01-30T11:57:16;12.00;99.90
4647;DHT22;2336;47.822;7.564;2024-01-30T11:59:43;12.00;99.90
4647;DHT22;2336;47.822;7.564;2024-01-30T12:02:15;11.90;99.90
4647;DHT22;2336;47.822;7.564;2024-01-30T12:04:42;11.80;99.90
4647;DHT22;2336;47.822;7.564;2024-01-30T12:07:10;11.70;99.90
4647;DHT22;2336;47.822;7.564;2024-01-30T12:09:37;11.70;99.90
4647;DHT22;2336;47.822;7.564;2024-01-30T12:12:06;11.60;99.90
4647;DHT22;2336;47.822;7.564;2024-01-30T12:14:37;11.60;99.90
4647;DHT22;2336;47.822;7.564;2024-01-30T12:17:04;11.70;99.90
4647;DHT22;2336;47.822;7.564;2024-01-30T12:19:33;11.70;99.90
4647;DHT22;2336;47.822;7.564;2024-01-30T12:21:59;11.80;99.90
4647;DHT22;2336;47.822;7.564;2024-01-30T12:24:28;11.70;99.90
4647;DHT22;2336;47.822;7.564;2024-01-30T12:26:57;11.70;99.90
4647;DHT22;2336;47.822;7.564;2024-01-30T12:29:23;11.80;99.90
4647;DHT22;2336;47.822;7.564;2024-01-30T12:31:53;12.00;99.90
4647;DHT22;2336;47.822;7.564;2024-01-30T12:34:20;12.10;99.90
4647;DHT22;2336;47.822;7.564;2024-01-30T12:36:47;12.40;99.90
4647;DHT22;2336;47.822;7.564;2024-01-30T12:39:14;12.50;99.90
4647;DHT22;2336;47.822;7.564;2024-01-30T12:41:42;12.40;99.90
4647;DHT22;2336;47.822;7.564;2024-01-30T12:44:09;12.50;99.90
4647;DHT22;2336;47.822;7.564;2024-01-30T12:46:36;12.60;99.90
4647;DHT22;2336;47.822;7.564;2024-01-30T12:49:03;12.60;99.90
4647;DHT22;2336;47.822;7.564;2024-01-30T12:51:29;12.60;99.90
4647;DHT22;2336;47.822;7.564;2024-01-30T12:53:56;12.40;99.90
4647;DHT22;2336;47.822;7.564;2024-01-30T12:56:23;12.30;99.90
4647;DHT22;2336;47.822;7.564;2024-01-30T12:58:51;12.50;99.90
4647;DHT22;2336;47.822;7.564;2024-01-30T13:01:18;12.50;99.90
4647;DHT22;2336;47.822;7.564;2024-01-30T13:03:45;12.40;99.90
4647;DHT22;2336;47.822;7.564;2024-01-30T13:06:12;12.40;99.90
4647;DHT22;2336;47.822;7.564;2024-01-30T13:08:38;12.40;99.90
4647;DHT22;2336;47.822;7.564;2024-01-30T13:11:05;12.50;99.90
4647;DHT22;2336;47.822;7.564;2024-01-30T13:13:32;12.40;99.90
4647;DHT22;2336;47.822;7.564;2024-01-30T13:16:00;12.50;99.90
4647;DHT22;2336;47.822;7.564;2024-01-30T13:18:27;12.60;99.90
4647;DHT22;2336;47.822;7.564;2024-01-30T13:20:54;12.80;99.90
4647;DHT22;2336;47.822;7.564;2024-01-30T13:23:21;12.50;99.90
4647;DHT22;2336;47.822;7.564;2024-01-30T13:25:48;12.50;99.90
4647;DHT22;2336;47.822;7.564;2024-01-30T13:28:14;12.40;99.90
4647;DHT22;2336;47.822;7.564;2024-01-30T13:30:41;12.40;99.90
4647;DHT22;2336;47.822;7.564;2024-01-30T13:33:09;12.30;99.90
4647;DHT22;2336;47.822;7.564;2024-01-30T13:35:36;12.40;99.90
4647;DHT22;2336;47.822;7.564;2024-01-30T13:38:03;12.40;99.90
4647;DHT22;2336;47.822;7.564;2024-01-30T13:40:30;12.40;99.90
4647;DHT22;2336;47.822;7.564;2024-01-30T13:42:58;12.30;99.90
4647;DHT22;2336;47.822;7.564;2024-01-30T13:45:25;12.40;99.90
4647;DHT22;2336;47.822;7.564;2024-01-30T13:47:51;12.30;99.90
4647;DHT22;2336;47.822;7.564;2024-01-30T13:50:20;12.30;99.90
4647;DHT22;2336;47.822;7.564;2024-01-30T13:52:46;12.30;99.90
4647;DHT22;2336;47.822;7.564;2024-01-30T13:55:13;12.30;99.90
4647;DHT22;2336;47.822;7.564;2024-01-30T13:57:40;12.30;99.90
4647;DHT22;2336;47.822;7.564;2024-01-30T14:00:08;12.30;99.90
4647;DHT22;2336;47.822;7.564;2024-01-30T14:02:35;12.20;99.90
4647;DHT22;2336;47.822;7.564;2024-01-30T14:05:02;12.20;99.90
4647;DHT22;2336;47.822;7.564;2024-01-30T14:07:31;12.10;99.90
4647;DHT22;2336;47.822;7.564;2024-01-30T14:09:58;12.10;99.90
4647;DHT22;2336;47.822;7.564;2024-01-30T14:12:25;12.10;99.90
4647;DHT22;2336;47.822;7.564;2024-01-30T14:14:51;12.00;99.90
4647;DHT22;2336;47.822;7.564;2024-01-30T14:17:18;11.90;99.90
4647;DHT22;2336;47.822;7.564;2024-01-30T14:19:45;11.90;99.90
4647;DHT22;2336;47.822;7.564;2024-01-30T14:22:12;11.90;99.90
4647;DHT22;2336;47.822;7.564;2024-01-30T14:24:40;11.90;99.90
4647;DHT22;2336;47.822;7.564;2024-01-30T14:27:07;11.90;99.90
4647;DHT22;2336;47.822;7.564;2024-01-30T14:29:34;11.90;99.90
4647;DHT22;2336;47.822;7.564;2024-01-30T14:32:01;11.80;99.90
4647;DHT22;2336;47.822;7.564;2024-01-30T14:34:29;11.80;99.90
4647;DHT22;2336;47.822;7.564;2024-01-30T14:36:56;11.80;99.90
4647;DHT22;2336;47.822;7.564;2024-01-30T14:39:23;11.80;99.90
4647;DHT22;2336;47.822;7.564;2024-01-30T14:41:51;11.80;99.90
4647;DHT22;2336;47.822;7.564;2024-01-30T14:44:18;11.80;99.90
4647;DHT22;2336;47.822;7.564;2024-01-30T14:46:46;11.70;99.90
4647;DHT22;2336;47.822;7.564;2024-01-30T14:49:12;11.70;99.90
4647;DHT22;2336;47.822;7.564;2024-01-30T14:51:41;11.70;99.90
4647;DHT22;2336;47.822;7.564;2024-01-30T14:54:08;11.60;99.90
4647;DHT22;2336;47.822;7.564;2024-01-30T14:56:35;11.60;99.90
4647;DHT22;2336;47.822;7.564;2024-01-30T14:59:03;11.60;99.90
4647;DHT22;2336;47.822;7.564;2024-01-30T15:01:30;11.60;99.90
4647;DHT22;2336;47.822;7.564;2024-01-30T15:03:57;11.50;99.90
4647;DHT22;2336;47.822;7.564;2024-01-30T15:06:24;11.50;99.90
4647;DHT22;2336;47.822;7.564;2024-01-30T15:08:51;11.50;99.90
4647;DHT22;2336;47.822;7.564;2024-01-30T15:11:18;11.50;99.90
4647;DHT22;2336;47.822;7.564;2024-01-30T15:13:44;11.40;99.90
4647;DHT22;2336;47.822;7.564;2024-01-30T15:16:13;11.50;99.90
4647;DHT22;2336;47.822;7.564;2024-01-30T15:18:40;11.50;99.90
4647;DHT22;2336;47.822;7.564;2024-01-30T15:21:06;11.50;99.90
4647;DHT22;2336;47.822;7.564;2024-01-30T15:23:33;11.50;99.90
4647;DHT22;2336;47.822;7.564;2024-01-30T15:26:00;11.40;99.90
4647;DHT22;2336;47.822;7.564;2024-01-30T15:28:34;11.50;99.90
4647;DHT22;2336;47.822;7.564;2024-01-30T15:31:03;11.40;99.90
4647;DHT22;2336;47.822;7.564;2024-01-30T15:33:31;11.50;99.90
4647;DHT22;2336;47.822;7.564;2024-01-30T15:35:58;11.40;99.90
4647;DHT22;2336;47.822;7.564;2024-01-30T15:38:25;11.30;99.90
4647;DHT22;2336;47.822;7.564;2024-01-30T15:40:52;11.40;99.90
4647;DHT22;2336;47.822;7.564;2024-01-30T15:43:19;11.30;99.90
4647;DHT22;2336;47.822;7.564;2024-01-30T15:45:47;11.30;99.90
4647;DHT22;2336;47.822;7.564;2024-01-30T15:48:13;11.40;99.90
4647;DHT22;2336;47.822;7.564;2024-01-30T15:50:42;11.40;99.90
4647;DHT22;2336;47.822;7.564;2024-01-30T15:53:08;11.30;99.90
4647;DHT22;2336;47.822;7.564;2024-01-30T15:55:35;11.30;99.90
4647;DHT22;2336;47.822;7.564;2024-01-30T15:58:03;11.40;99.90
4647;DHT22;2336;47.822;7.564;2024-01-30T16:00:31;11.30;99.90
4647;DHT22;2336;47.822;7.564;2024-01-30T16:02:58;11.20;99.90
4647;DHT22;2336;47.822;7.564;2024-01-30T16:05:25;11.20;99.90
4647;DHT22;2336;47.822;7.564;2024-01-30T16:07:53;11.20;99.90
4647;DHT22;2336;47.822;7.564;2024-01-30T16:10:20;11.20;99.90
4647;DHT22;2336;47.822;7.564;2024-01-30T16:12:47;11.10;99.90